createdAt,value
2019-03-09T00:01:39.001Z,63.10
2019-03-09T00:07:08.262Z,63.00
2019-03-09T00:12:37.532Z,63.20
2019-03-09T00:18:06.816Z,63.00
2019-03-09T00:23:53.983Z,63.00
2019-03-09T00:29:27.601Z,62.90
2019-03-09T00:34:56.877Z,62.90
2019-03-09T00:40:26.256Z,62.90
2019-03-09T00:45:55.515Z,63.40
2019-03-09T00:51:29.788Z,62.80
2019-03-09T00:57:01.388Z,62.50
2019-03-09T01:02:30.644Z,62.50
2019-03-09T01:07:59.930Z,62.50
2019-03-09T01:13:29.210Z,62.50
2019-03-09T01:18:59.493Z,62.50
2019-03-09T01:24:29.932Z,62.40
2019-03-09T01:29:59.194Z,62.40
2019-03-09T01:35:28.479Z,62.50
2019-03-09T01:40:57.744Z,62.50
2019-03-09T01:46:27.024Z,62.60
2019-03-09T01:51:56.295Z,62.60
2019-03-09T01:57:25.572Z,62.80
2019-03-09T02:02:54.850Z,62.90
2019-03-09T02:08:24.111Z,63.00
2019-03-09T02:13:53.390Z,63.10
2019-03-09T02:19:22.655Z,63.00
2019-03-09T02:24:51.919Z,63.20
2019-03-09T02:30:21.332Z,63.10
2019-03-09T02:35:50.615Z,63.90
2019-03-09T02:41:19.860Z,63.20
2019-03-09T02:46:51.075Z,63.10
2019-03-09T02:52:20.349Z,63.10
2019-03-09T02:57:50.623Z,63.10
2019-03-09T03:03:19.889Z,63.40
2019-03-09T03:08:49.161Z,63.40
2019-03-09T03:14:18.425Z,63.30
2019-03-09T03:19:47.702Z,63.40
2019-03-09T03:25:16.962Z,63.20
2019-03-09T03:30:46.246Z,63.30
2019-03-09T03:36:15.550Z,63.60
2019-03-09T03:41:45.791Z,63.90
2019-03-09T03:47:18.144Z,64.00
2019-03-09T03:52:47.788Z,64.40
2019-03-09T03:58:17.166Z,64.60
2019-03-09T04:03:46.578Z,65.00
2019-03-09T04:09:15.982Z,65.60
2019-03-09T04:14:45.251Z,66.40
2019-03-09T04:20:14.650Z,66.80
2019-03-09T04:25:44.009Z,67.10
2019-03-09T04:31:13.723Z,67.60
2019-03-09T04:36:43.326Z,67.70
2019-03-09T04:42:13.547Z,68.20
2019-03-09T04:48:02.149Z,68.50
2019-03-09T04:53:31.433Z,68.70
2019-03-09T04:59:01.655Z,68.90
2019-03-09T05:04:40.707Z,68.90
2019-03-09T05:10:14.482Z,69.00
2019-03-09T05:15:45.731Z,69.00
2019-03-09T05:21:14.995Z,69.20
2019-03-09T05:26:50.091Z,69.30
2019-03-09T05:32:38.779Z,69.20
2019-03-09T05:38:08.197Z,69.10
2019-03-09T05:43:43.483Z,69.10
2019-03-09T05:49:12.849Z,70.00
2019-03-09T05:54:42.247Z,69.30
2019-03-09T06:00:14.616Z,69.20
2019-03-09T06:05:49.618Z,69.00
2019-03-09T06:11:25.161Z,68.70
2019-03-09T06:16:54.669Z,68.10
2019-03-09T06:22:24.324Z,67.70
2019-03-09T06:27:53.847Z,67.30
2019-03-09T06:33:25.597Z,66.90
2019-03-09T06:39:02.323Z,65.90
2019-03-09T06:44:31.628Z,65.10
2019-03-09T06:50:03.938Z,64.70
2019-03-09T06:55:34.900Z,64.10
2019-03-09T07:01:20.422Z,63.60
2019-03-09T07:06:49.970Z,62.80
2019-03-09T07:12:19.518Z,62.00
2019-03-09T07:17:49.093Z,62.20
2019-03-09T07:23:18.747Z,61.60
2019-03-09T07:28:48.137Z,61.70
2019-03-09T07:34:26.919Z,62.70
2019-03-09T07:39:56.367Z,64.30
2019-03-09T07:45:25.864Z,65.90
2019-03-09T07:50:55.378Z,67.30
2019-03-09T07:56:24.962Z,68.60
2019-03-09T08:01:54.465Z,69.40
2019-03-09T08:07:23.973Z,69.30
2019-03-09T08:12:53.496Z,69.40
2019-03-09T08:18:22.958Z,69.60
2019-03-09T08:23:52.624Z,69.80
2019-03-09T08:29:22.057Z,69.50
2019-03-09T08:34:51.580Z,68.90
2019-03-09T08:40:26.263Z,68.20
2019-03-09T08:45:56.071Z,67.90
2019-03-09T08:51:25.890Z,67.30
2019-03-09T08:56:55.307Z,66.50
2019-03-09T09:02:24.939Z,65.50
2019-03-09T09:07:56.256Z,65.00
2019-03-09T09:13:26.880Z,64.50
2019-03-09T09:18:56.325Z,64.00
2019-03-09T09:24:25.941Z,63.70
2019-03-09T09:29:55.701Z,63.10
2019-03-09T09:35:25.397Z,63.00
2019-03-09T09:40:55.178Z,62.80
2019-03-09T09:46:25.059Z,62.20
2019-03-09T09:51:55.964Z,62.10
2019-03-09T09:57:25.762Z,61.80
2019-03-09T10:02:55.640Z,60.10
2019-03-09T10:08:25.340Z,59.50
2019-03-09T10:13:58.469Z,59.20
2019-03-09T10:19:28.033Z,58.70
2019-03-09T10:24:57.500Z,58.60
2019-03-09T10:30:27.114Z,57.80
2019-03-09T10:35:59.560Z,56.90
2019-03-09T10:41:30.483Z,56.70
2019-03-09T10:46:59.994Z,56.70
2019-03-09T10:52:29.506Z,57.00
2019-03-09T10:58:01.719Z,56.90
2019-03-09T11:03:31.148Z,57.10
2019-03-09T11:09:19.764Z,57.20
2019-03-09T11:14:50.018Z,56.90
2019-03-09T11:20:20.994Z,56.90
2019-03-09T11:25:50.671Z,57.20
2019-03-09T11:31:20.194Z,57.10
2019-03-09T11:36:51.370Z,57.40
2019-03-09T11:42:23.021Z,57.40
2019-03-09T11:47:52.665Z,57.10
2019-03-09T11:53:22.909Z,56.80
2019-03-09T11:59:14.531Z,56.30
2019-03-09T12:04:47.056Z,55.90
2019-03-09T12:10:15.561Z,56.00
2019-03-09T12:15:44.891Z,55.70
2019-03-09T12:21:14.332Z,55.90
2019-03-09T12:26:44.134Z,55.80
2019-03-09T12:32:14.674Z,56.00
2019-03-09T12:37:45.240Z,55.80
2019-03-09T12:43:14.758Z,55.60
2019-03-09T12:48:44.195Z,55.50
2019-03-09T12:54:13.655Z,55.30
2019-03-09T12:59:43.093Z,54.80
2019-03-09T13:05:12.710Z,55.10
2019-03-09T13:10:42.128Z,55.00
2019-03-09T13:16:11.605Z,54.50
2019-03-09T13:21:41.002Z,54.50
2019-03-09T13:27:13.214Z,53.80
2019-03-09T13:32:42.804Z,53.40
2019-03-09T13:38:12.291Z,53.70
2019-03-09T13:43:42.014Z,54.10
2019-03-09T13:49:13.504Z,54.50
2019-03-09T13:54:43.779Z,54.60
2019-03-09T14:00:18.325Z,54.90
2019-03-09T14:05:54.715Z,55.20
2019-03-09T14:11:24.323Z,55.40
2019-03-09T14:16:53.911Z,55.70
2019-03-09T14:22:23.792Z,56.00
2019-03-09T14:27:53.473Z,56.40
2019-03-09T14:33:24.184Z,56.60
2019-03-09T14:38:56.368Z,57.10
2019-03-09T14:44:25.856Z,57.40
2019-03-09T14:49:56.540Z,57.80
2019-03-09T14:55:26.063Z,57.90
2019-03-09T15:00:56.765Z,58.10
2019-03-09T15:06:26.373Z,58.30
2019-03-09T15:11:56.478Z,58.60
2019-03-09T15:17:26.111Z,58.80
2019-03-09T15:23:16.617Z,59.10
2019-03-09T15:28:47.676Z,59.20
2019-03-09T15:34:19.406Z,59.30
2019-03-09T15:39:54.423Z,59.40
2019-03-09T15:45:28.607Z,59.60
2019-03-09T15:50:58.206Z,59.70
2019-03-09T15:56:27.818Z,59.90
2019-03-09T16:01:57.258Z,60.10
2019-03-09T16:07:26.823Z,60.80
2019-03-09T16:12:56.450Z,62.60
2019-03-09T16:18:30.014Z,65.70
2019-03-09T16:24:06.240Z,67.60
2019-03-09T16:29:35.802Z,67.90
2019-03-09T16:35:07.681Z,68.10
2019-03-09T16:40:40.801Z,68.40
2019-03-09T16:46:08.510Z,68.40
2019-03-09T16:51:43.845Z,68.70
2019-03-09T16:57:13.578Z,68.90
2019-03-09T17:02:43.065Z,68.60
2019-03-09T17:08:14.343Z,68.40
2019-03-09T17:13:43.797Z,68.00
2019-03-09T17:19:14.179Z,67.70
2019-03-09T17:25:02.785Z,67.60
2019-03-09T17:30:32.073Z,67.60
2019-03-09T17:36:03.384Z,67.60
2019-03-09T17:41:32.660Z,67.40
2019-03-09T17:47:01.961Z,67.20
2019-03-09T17:52:31.296Z,66.90
2019-03-09T17:58:00.682Z,67.20
2019-03-09T18:03:29.987Z,67.20
2019-03-09T18:08:59.228Z,67.70
2019-03-09T18:14:32.190Z,67.90
2019-03-09T18:20:01.532Z,68.10
2019-03-09T18:25:32.081Z,68.10
2019-03-09T18:31:01.355Z,68.10
2019-03-09T18:36:30.624Z,67.80
2019-03-09T18:41:59.891Z,67.50
2019-03-09T18:47:31.467Z,67.40
2019-03-09T18:53:00.720Z,67.10
2019-03-09T18:58:30.116Z,67.10
2019-03-09T19:03:59.377Z,67.10
2019-03-09T19:09:29.679Z,67.00
2019-03-09T19:14:59.177Z,67.00
2019-03-09T19:20:28.714Z,66.70
2019-03-09T19:25:58.013Z,66.60
2019-03-09T19:31:27.325Z,66.30
2019-03-09T19:36:56.589Z,64.80
2019-03-09T19:42:25.889Z,64.70
2019-03-09T19:47:55.160Z,64.20
2019-03-09T19:53:24.440Z,63.90
2019-03-09T19:58:53.716Z,63.80
2019-03-09T20:04:23.051Z,63.60
2019-03-09T20:09:52.333Z,63.30
2019-03-09T20:15:22.159Z,62.70
2019-03-09T20:20:51.429Z,61.70
2019-03-09T20:26:20.702Z,61.30
2019-03-09T20:31:49.995Z,60.40
2019-03-09T20:37:19.248Z,59.50
2019-03-09T20:42:48.694Z,59.50
2019-03-09T20:48:18.403Z,58.70
2019-03-09T20:53:47.698Z,58.70
2019-03-09T20:59:17.168Z,58.90
2019-03-09T21:04:46.436Z,59.30
2019-03-09T21:10:20.562Z,59.60
2019-03-09T21:15:49.819Z,59.50
2019-03-09T21:21:19.090Z,59.00
2019-03-09T21:26:48.375Z,59.20
2019-03-09T21:32:17.646Z,59.60
2019-03-09T21:37:46.917Z,59.70
2019-03-09T21:43:16.191Z,59.70
2019-03-09T21:48:45.479Z,59.80
2019-03-09T21:54:15.766Z,59.90
2019-03-09T21:59:45.036Z,60.00
2019-03-09T22:05:14.454Z,60.10
2019-03-09T22:10:44.748Z,60.40
2019-03-09T22:16:14.105Z,60.70
2019-03-09T22:21:43.376Z,61.10
2019-03-09T22:27:13.616Z,61.40
2019-03-09T22:32:48.756Z,61.80
2019-03-09T22:38:25.979Z,62.10
2019-03-09T22:43:55.406Z,62.40
2019-03-09T22:49:24.672Z,62.60
2019-03-09T22:54:55.581Z,62.90
2019-03-09T23:00:28.731Z,63.10
2019-03-09T23:05:58.201Z,63.60
2019-03-09T23:11:30.683Z,63.70
2019-03-09T23:16:59.986Z,63.90
2019-03-09T23:22:29.327Z,64.00
2019-03-09T23:27:58.604Z,64.10
2019-03-09T23:33:27.892Z,64.10
2019-03-09T23:39:04.421Z,64.10
2019-03-09T23:44:33.672Z,64.20
2019-03-09T23:50:03.045Z,64.30
2019-03-09T23:55:32.462Z,64.40
